sensor_id;sensor_type;location;lat;lon;timestamp;temperature;humidity
75368;DHT22;63954;51.948;5.888;2022-12-11T00:01:23;2.28;81.75
75368;DHT22;63954;51.948;5.888;2022-12-11T00:03:50;2.25;81.84
75368;DHT22;63954;51.948;5.888;2022-12-11T00:06:20;2.24;81.90
75368;DHT22;63954;51.948;5.888;2022-12-11T00:08:50;2.23;81.96
75368;DHT22;63954;51.948;5.888;2022-12-11T00:11:18;2.23;82.05
75368;DHT22;63954;51.948;5.888;2022-12-11T00:13:46;2.22;82.09
75368;DHT22;63954;51.948;5.888;2022-12-11T00:16:13;2.24;82.12
75368;DHT22;63954;51.948;5.888;2022-12-11T00:18:43;2.24;82.09
75368;DHT22;63954;51.948;5.888;2022-12-11T00:21:13;2.24;82.13
75368;DHT22;63954;51.948;5.888;2022-12-11T00:23:40;2.24;82.11
75368;DHT22;63954;51.948;5.888;2022-12-11T00:26:09;2.26;82.10
75368;DHT22;63954;51.948;5.888;2022-12-11T00:28:37;2.25;82.22
75368;DHT22;63954;51.948;5.888;2022-12-11T00:31:05;2.26;82.09
75368;DHT22;63954;51.948;5.888;2022-12-11T00:33:33;2.26;82.01
75368;DHT22;63954;51.948;5.888;2022-12-11T00:36:02;2.26;82.02
75368;DHT22;63954;51.948;5.888;2022-12-11T00:38:29;2.27;82.05
75368;DHT22;63954;51.948;5.888;2022-12-11T00:40:57;2.30;82.07
75368;DHT22;63954;51.948;5.888;2022-12-11T00:43:24;2.31;82.01
75368;DHT22;63954;51.948;5.888;2022-12-11T00:45:51;2.34;82.08
75368;DHT22;63954;51.948;5.888;2022-12-11T00:48:19;2.35;82.07
75368;DHT22;63954;51.948;5.888;2022-12-11T00:50:46;2.36;82.03
75368;DHT22;63954;51.948;5.888;2022-12-11T00:53:14;2.36;82.00
75368;DHT22;63954;51.948;5.888;2022-12-11T00:55:41;2.38;82.03
75368;DHT22;63954;51.948;5.888;2022-12-11T00:58:09;2.39;82.07
75368;DHT22;63954;51.948;5.888;2022-12-11T01:00:37;2.40;82.05
75368;DHT22;63954;51.948;5.888;2022-12-11T01:03:05;2.41;82.05
75368;DHT22;63954;51.948;5.888;2022-12-11T01:05:33;2.42;82.06
75368;DHT22;63954;51.948;5.888;2022-12-11T01:08:01;2.43;82.05
75368;DHT22;63954;51.948;5.888;2022-12-11T01:10:30;2.43;82.01
75368;DHT22;63954;51.948;5.888;2022-12-11T01:12:59;2.43;82.04
75368;DHT22;63954;51.948;5.888;2022-12-11T01:15:29;2.45;82.04
75368;DHT22;63954;51.948;5.888;2022-12-11T01:17:56;2.47;82.01
75368;DHT22;63954;51.948;5.888;2022-12-11T01:20:24;2.47;81.97
75368;DHT22;63954;51.948;5.888;2022-12-11T01:22:53;2.45;81.91
75368;DHT22;63954;51.948;5.888;2022-12-11T01:25:21;2.43;81.97
75368;DHT22;63954;51.948;5.888;2022-12-11T01:27:51;2.44;81.96
75368;DHT22;63954;51.948;5.888;2022-12-11T01:30:19;2.44;81.98
75368;DHT22;63954;51.948;5.888;2022-12-11T01:32:47;2.44;81.98
75368;DHT22;63954;51.948;5.888;2022-12-11T01:35:15;2.43;82.01
75368;DHT22;63954;51.948;5.888;2022-12-11T01:37:43;2.44;82.02
75368;DHT22;63954;51.948;5.888;2022-12-11T01:40:12;2.44;82.04
75368;DHT22;63954;51.948;5.888;2022-12-11T01:42:40;2.45;82.04
75368;DHT22;63954;51.948;5.888;2022-12-11T01:45:29;2.44;81.99
75368;DHT22;63954;51.948;5.888;2022-12-11T01:48:01;2.44;82.07
75368;DHT22;63954;51.948;5.888;2022-12-11T01:50:32;2.45;82.10
75368;DHT22;63954;51.948;5.888;2022-12-11T01:53:01;2.46;82.09
75368;DHT22;63954;51.948;5.888;2022-12-11T01:55:31;2.47;82.12
75368;DHT22;63954;51.948;5.888;2022-12-11T01:57:59;2.46;82.10
75368;DHT22;63954;51.948;5.888;2022-12-11T02:00:29;2.45;82.15
75368;DHT22;63954;51.948;5.888;2022-12-11T02:02:56;2.47;82.13
75368;DHT22;63954;51.948;5.888;2022-12-11T02:05:23;2.45;82.16
75368;DHT22;63954;51.948;5.888;2022-12-11T02:07:54;2.45;82.18
75368;DHT22;63954;51.948;5.888;2022-12-11T02:10:23;2.47;82.22
75368;DHT22;63954;51.948;5.888;2022-12-11T02:12:57;2.45;82.22
75368;DHT22;63954;51.948;5.888;2022-12-11T02:15:31;2.45;82.26
75368;DHT22;63954;51.948;5.888;2022-12-11T02:18:09;2.43;82.29
75368;DHT22;63954;51.948;5.888;2022-12-11T02:20:42;2.40;82.36
75368;DHT22;63954;51.948;5.888;2022-12-11T02:26:11;2.31;82.57
75368;DHT22;63954;51.948;5.888;2022-12-11T02:28:46;2.32;82.63
75368;DHT22;63954;51.948;5.888;2022-12-11T02:31:19;2.34;82.62
75368;DHT22;63954;51.948;5.888;2022-12-11T02:33:53;2.34;82.65
75368;DHT22;63954;51.948;5.888;2022-12-11T02:36:23;2.35;82.64
75368;DHT22;63954;51.948;5.888;2022-12-11T02:38:53;2.34;82.68
75368;DHT22;63954;51.948;5.888;2022-12-11T02:41:23;2.36;82.68
75368;DHT22;63954;51.948;5.888;2022-12-11T02:43:53;2.32;82.91
75368;DHT22;63954;51.948;5.888;2022-12-11T02:46:21;2.32;82.84
75368;DHT22;63954;51.948;5.888;2022-12-11T02:48:49;2.34;82.58
75368;DHT22;63954;51.948;5.888;2022-12-11T02:51:23;2.35;82.58
75368;DHT22;63954;51.948;5.888;2022-12-11T02:53:53;2.36;82.59
75368;DHT22;63954;51.948;5.888;2022-12-11T02:56:31;2.36;82.64
75368;DHT22;63954;51.948;5.888;2022-12-11T02:59:05;2.35;82.62
75368;DHT22;63954;51.948;5.888;2022-12-11T03:01:34;2.35;82.75
75368;DHT22;63954;51.948;5.888;2022-12-11T03:04:01;2.34;82.82
75368;DHT22;63954;51.948;5.888;2022-12-11T03:06:34;2.34;82.84
75368;DHT22;63954;51.948;5.888;2022-12-11T03:09:02;2.36;82.94
75368;DHT22;63954;51.948;5.888;2022-12-11T03:11:31;2.36;82.96
75368;DHT22;63954;51.948;5.888;2022-12-11T03:14:00;2.38;82.95
75368;DHT22;63954;51.948;5.888;2022-12-11T03:16:33;2.39;82.92
75368;DHT22;63954;51.948;5.888;2022-12-11T03:19:08;2.40;82.93
75368;DHT22;63954;51.948;5.888;2022-12-11T03:21:42;2.40;83.00
75368;DHT22;63954;51.948;5.888;2022-12-11T03:24:14;2.42;83.02
75368;DHT22;63954;51.948;5.888;2022-12-11T03:26:44;2.45;82.98
75368;DHT22;63954;51.948;5.888;2022-12-11T03:29:17;2.47;82.95
75368;DHT22;63954;51.948;5.888;2022-12-11T03:31:48;2.49;82.97
75368;DHT22;63954;51.948;5.888;2022-12-11T03:34:22;2.50;82.94
75368;DHT22;63954;51.948;5.888;2022-12-11T03:36:50;2.53;82.89
75368;DHT22;63954;51.948;5.888;2022-12-11T03:39:23;2.54;82.77
75368;DHT22;63954;51.948;5.888;2022-12-11T03:41:53;2.55;82.81
75368;DHT22;63954;51.948;5.888;2022-12-11T03:44:23;2.55;82.81
75368;DHT22;63954;51.948;5.888;2022-12-11T03:46:51;2.56;82.77
75368;DHT22;63954;51.948;5.888;2022-12-11T03:49:21;2.57;82.71
75368;DHT22;63954;51.948;5.888;2022-12-11T03:51:51;2.58;82.65
75368;DHT22;63954;51.948;5.888;2022-12-11T03:54:19;2.57;82.65
75368;DHT22;63954;51.948;5.888;2022-12-11T03:56:48;2.58;82.65
75368;DHT22;63954;51.948;5.888;2022-12-11T03:59:17;2.59;82.66
75368;DHT22;63954;51.948;5.888;2022-12-11T04:01:45;2.61;82.59
75368;DHT22;63954;51.948;5.888;2022-12-11T04:04:12;2.61;82.58
75368;DHT22;63954;51.948;5.888;2022-12-11T04:06:40;2.62;82.51
75368;DHT22;63954;51.948;5.888;2022-12-11T04:09:07;2.61;82.46
75368;DHT22;63954;51.948;5.888;2022-12-11T04:11:34;2.62;82.43
75368;DHT22;63954;51.948;5.888;2022-12-11T04:14:02;2.61;82.36
75368;DHT22;63954;51.948;5.888;2022-12-11T04:16:48;2.62;82.38
75368;DHT22;63954;51.948;5.888;2022-12-11T04:19:16;2.65;82.37
75368;DHT22;63954;51.948;5.888;2022-12-11T04:22:00;2.65;82.36
75368;DHT22;63954;51.948;5.888;2022-12-11T04:24:53;2.67;82.30
75368;DHT22;63954;51.948;5.888;2022-12-11T04:27:20;2.66;82.25
75368;DHT22;63954;51.948;5.888;2022-12-11T04:30:09;2.68;82.22
75368;DHT22;63954;51.948;5.888;2022-12-11T04:32:38;2.70;82.17
75368;DHT22;63954;51.948;5.888;2022-12-11T04:35:06;2.72;82.12
75368;DHT22;63954;51.948;5.888;2022-12-11T04:37:34;2.72;82.05
75368;DHT22;63954;51.948;5.888;2022-12-11T04:40:02;2.73;82.09
75368;DHT22;63954;51.948;5.888;2022-12-11T04:42:29;2.74;82.01
75368;DHT22;63954;51.948;5.888;2022-12-11T04:44:56;2.75;81.95
75368;DHT22;63954;51.948;5.888;2022-12-11T04:47:24;2.76;82.01
75368;DHT22;63954;51.948;5.888;2022-12-11T04:49:52;2.79;82.02
75368;DHT22;63954;51.948;5.888;2022-12-11T04:52:20;2.79;82.00
75368;DHT22;63954;51.948;5.888;2022-12-11T04:54:47;2.83;81.97
75368;DHT22;63954;51.948;5.888;2022-12-11T04:57:14;2.82;81.88
75368;DHT22;63954;51.948;5.888;2022-12-11T04:59:41;2.83;81.65
75368;DHT22;63954;51.948;5.888;2022-12-11T05:02:08;2.82;81.65
75368;DHT22;63954;51.948;5.888;2022-12-11T05:04:36;2.85;81.62
75368;DHT22;63954;51.948;5.888;2022-12-11T05:07:04;2.85;81.52
75368;DHT22;63954;51.948;5.888;2022-12-11T05:09:31;2.86;81.39
75368;DHT22;63954;51.948;5.888;2022-12-11T05:11:59;2.86;81.24
75368;DHT22;63954;51.948;5.888;2022-12-11T05:14:26;2.83;81.30
75368;DHT22;63954;51.948;5.888;2022-12-11T05:16:57;2.84;81.33
75368;DHT22;63954;51.948;5.888;2022-12-11T05:19:24;2.83;81.23
75368;DHT22;63954;51.948;5.888;2022-12-11T05:21:51;2.83;81.23
75368;DHT22;63954;51.948;5.888;2022-12-11T05:24:20;2.82;81.20
75368;DHT22;63954;51.948;5.888;2022-12-11T05:26:47;2.84;81.14
75368;DHT22;63954;51.948;5.888;2022-12-11T05:29:14;2.85;81.17
75368;DHT22;63954;51.948;5.888;2022-12-11T05:31:41;2.85;81.13
75368;DHT22;63954;51.948;5.888;2022-12-11T05:34:09;2.87;81.14
75368;DHT22;63954;51.948;5.888;2022-12-11T05:36:36;2.88;81.10
75368;DHT22;63954;51.948;5.888;2022-12-11T05:39:04;2.87;81.06
75368;DHT22;63954;51.948;5.888;2022-12-11T05:41:32;2.87;81.01
75368;DHT22;63954;51.948;5.888;2022-12-11T05:44:00;2.88;81.04
75368;DHT22;63954;51.948;5.888;2022-12-11T05:46:29;2.85;81.01
75368;DHT22;63954;51.948;5.888;2022-12-11T05:48:58;2.85;80.93
75368;DHT22;63954;51.948;5.888;2022-12-11T05:51:26;2.85;81.00
75368;DHT22;63954;51.948;5.888;2022-12-11T05:53:54;2.84;80.96
75368;DHT22;63954;51.948;5.888;2022-12-11T05:56:23;2.83;80.79
75368;DHT22;63954;51.948;5.888;2022-12-11T05:58:53;2.82;80.75
75368;DHT22;63954;51.948;5.888;2022-12-11T06:01:22;2.83;80.84
75368;DHT22;63954;51.948;5.888;2022-12-11T06:03:49;2.82;80.81
75368;DHT22;63954;51.948;5.888;2022-12-11T06:06:17;2.83;80.85
75368;DHT22;63954;51.948;5.888;2022-12-11T06:08:44;2.85;80.83
75368;DHT22;63954;51.948;5.888;2022-12-11T06:11:12;2.86;80.78
75368;DHT22;63954;51.948;5.888;2022-12-11T06:13:39;2.87;80.78
75368;DHT22;63954;51.948;5.888;2022-12-11T06:16:09;2.86;80.73
75368;DHT22;63954;51.948;5.888;2022-12-11T06:18:36;2.86;80.85
75368;DHT22;63954;51.948;5.888;2022-12-11T06:21:15;2.84;80.62
75368;DHT22;63954;51.948;5.888;2022-12-11T06:23:43;2.84;80.67
75368;DHT22;63954;51.948;5.888;2022-12-11T06:26:12;2.86;80.47
75368;DHT22;63954;51.948;5.888;2022-12-11T06:28:40;2.83;80.19
75368;DHT22;63954;51.948;5.888;2022-12-11T06:31:08;2.81;79.91
75368;DHT22;63954;51.948;5.888;2022-12-11T06:33:36;2.79;79.91
75368;DHT22;63954;51.948;5.888;2022-12-11T06:36:04;2.78;79.86
75368;DHT22;63954;51.948;5.888;2022-12-11T06:38:32;2.78;79.90
75368;DHT22;63954;51.948;5.888;2022-12-11T06:41:01;2.76;79.84
75368;DHT22;63954;51.948;5.888;2022-12-11T06:43:30;2.76;79.82
75368;DHT22;63954;51.948;5.888;2022-12-11T06:45:57;2.74;79.73
75368;DHT22;63954;51.948;5.888;2022-12-11T06:48:26;2.73;79.85
75368;DHT22;63954;51.948;5.888;2022-12-11T06:50:54;2.74;79.83
75368;DHT22;63954;51.948;5.888;2022-12-11T06:53:21;2.75;79.76
75368;DHT22;63954;51.948;5.888;2022-12-11T06:55:48;2.72;79.95
75368;DHT22;63954;51.948;5.888;2022-12-11T06:58:15;2.72;80.07
75368;DHT22;63954;51.948;5.888;2022-12-11T07:00:43;2.74;80.09
75368;DHT22;63954;51.948;5.888;2022-12-11T07:03:10;2.74;80.00
75368;DHT22;63954;51.948;5.888;2022-12-11T07:05:39;2.72;80.09
75368;DHT22;63954;51.948;5.888;2022-12-11T07:08:07;2.72;80.05
75368;DHT22;63954;51.948;5.888;2022-12-11T07:10:34;2.72;79.92
75368;DHT22;63954;51.948;5.888;2022-12-11T07:13:01;2.73;80.01
75368;DHT22;63954;51.948;5.888;2022-12-11T07:15:28;2.72;79.86
75368;DHT22;63954;51.948;5.888;2022-12-11T07:17:55;2.70;79.66
75368;DHT22;63954;51.948;5.888;2022-12-11T07:20:22;2.69;79.40
75368;DHT22;63954;51.948;5.888;2022-12-11T07:22:52;2.67;79.40
75368;DHT22;63954;51.948;5.888;2022-12-11T07:25:20;2.70;79.27
75368;DHT22;63954;51.948;5.888;2022-12-11T07:27:47;2.69;79.06
75368;DHT22;63954;51.948;5.888;2022-12-11T07:30:14;2.69;78.99
75368;DHT22;63954;51.948;5.888;2022-12-11T07:32:41;2.68;78.92
75368;DHT22;63954;51.948;5.888;2022-12-11T07:35:09;2.67;78.88
75368;DHT22;63954;51.948;5.888;2022-12-11T07:37:39;2.66;78.72
75368;DHT22;63954;51.948;5.888;2022-12-11T07:40:08;2.65;78.60
75368;DHT22;63954;51.948;5.888;2022-12-11T07:42:36;2.64;78.79
75368;DHT22;63954;51.948;5.888;2022-12-11T07:45:03;2.65;78.71
75368;DHT22;63954;51.948;5.888;2022-12-11T07:47:32;2.64;78.57
75368;DHT22;63954;51.948;5.888;2022-12-11T07:49:59;2.64;78.50
75368;DHT22;63954;51.948;5.888;2022-12-11T07:52:26;2.65;78.58
75368;DHT22;63954;51.948;5.888;2022-12-11T07:54:53;2.66;78.75
75368;DHT22;63954;51.948;5.888;2022-12-11T07:57:22;2.68;78.79
75368;DHT22;63954;51.948;5.888;2022-12-11T07:59:49;2.70;78.72
75368;DHT22;63954;51.948;5.888;2022-12-11T08:02:16;2.70;78.76
75368;DHT22;63954;51.948;5.888;2022-12-11T08:04:43;2.71;78.47
75368;DHT22;63954;51.948;5.888;2022-12-11T08:07:11;2.69;78.39
75368;DHT22;63954;51.948;5.888;2022-12-11T08:09:38;2.69;78.20
75368;DHT22;63954;51.948;5.888;2022-12-11T08:12:05;2.68;78.21
75368;DHT22;63954;51.948;5.888;2022-12-11T08:14:35;2.70;78.20
75368;DHT22;63954;51.948;5.888;2022-12-11T08:17:02;2.71;78.23
75368;DHT22;63954;51.948;5.888;2022-12-11T08:19:30;2.70;78.05
75368;DHT22;63954;51.948;5.888;2022-12-11T08:21:57;2.71;77.98
75368;DHT22;63954;51.948;5.888;2022-12-11T08:24:24;2.69;77.76
75368;DHT22;63954;51.948;5.888;2022-12-11T08:26:52;2.69;77.90
75368;DHT22;63954;51.948;5.888;2022-12-11T08:29:19;2.71;77.77
75368;DHT22;63954;51.948;5.888;2022-12-11T08:31:48;2.70;77.90
75368;DHT22;63954;51.948;5.888;2022-12-11T08:34:15;2.72;78.13
75368;DHT22;63954;51.948;5.888;2022-12-11T08:36:42;2.76;77.99
75368;DHT22;63954;51.948;5.888;2022-12-11T08:39:11;2.76;78.11
75368;DHT22;63954;51.948;5.888;2022-12-11T08:41:38;2.78;77.97
75368;DHT22;63954;51.948;5.888;2022-12-11T08:44:10;2.80;77.60
75368;DHT22;63954;51.948;5.888;2022-12-11T08:46:37;2.76;77.63
75368;DHT22;63954;51.948;5.888;2022-12-11T08:49:06;2.79;77.54
75368;DHT22;63954;51.948;5.888;2022-12-11T08:51:33;2.80;77.58
75368;DHT22;63954;51.948;5.888;2022-12-11T08:54:01;2.83;77.54
75368;DHT22;63954;51.948;5.888;2022-12-11T08:56:28;2.84;77.40
75368;DHT22;63954;51.948;5.888;2022-12-11T08:58:58;2.88;77.44
75368;DHT22;63954;51.948;5.888;2022-12-11T09:01:26;2.89;77.39
75368;DHT22;63954;51.948;5.888;2022-12-11T09:03:55;2.91;77.40
75368;DHT22;63954;51.948;5.888;2022-12-11T09:06:25;2.96;77.33
75368;DHT22;63954;51.948;5.888;2022-12-11T09:08:53;2.97;77.50
75368;DHT22;63954;51.948;5.888;2022-12-11T09:11:23;3.01;77.50
75368;DHT22;63954;51.948;5.888;2022-12-11T09:13:50;3.04;77.49
75368;DHT22;63954;51.948;5.888;2022-12-11T09:16:21;3.06;77.51
75368;DHT22;63954;51.948;5.888;2022-12-11T09:18:50;3.10;77.50
75368;DHT22;63954;51.948;5.888;2022-12-11T09:21:20;3.13;77.35
75368;DHT22;63954;51.948;5.888;2022-12-11T09:23:52;3.15;77.24
75368;DHT22;63954;51.948;5.888;2022-12-11T09:26:20;3.16;77.20
75368;DHT22;63954;51.948;5.888;2022-12-11T09:28:47;3.18;77.15
75368;DHT22;63954;51.948;5.888;2022-12-11T09:31:21;3.17;76.97
75368;DHT22;63954;51.948;5.888;2022-12-11T09:33:50;3.18;76.82
75368;DHT22;63954;51.948;5.888;2022-12-11T09:36:17;3.19;76.96
75368;DHT22;63954;51.948;5.888;2022-12-11T09:38:45;3.21;76.89
75368;DHT22;63954;51.948;5.888;2022-12-11T09:41:35;3.23;76.78
75368;DHT22;63954;51.948;5.888;2022-12-11T09:44:15;3.24;76.79
75368;DHT22;63954;51.948;5.888;2022-12-11T09:46:46;3.26;76.74
75368;DHT22;63954;51.948;5.888;2022-12-11T09:49:23;3.26;76.70
75368;DHT22;63954;51.948;5.888;2022-12-11T09:51:59;3.27;76.76
75368;DHT22;63954;51.948;5.888;2022-12-11T09:54:29;3.30;76.78
75368;DHT22;63954;51.948;5.888;2022-12-11T09:57:05;3.30;76.70
75368;DHT22;63954;51.948;5.888;2022-12-11T09:59:56;3.32;76.76
75368;DHT22;63954;51.948;5.888;2022-12-11T10:02:39;3.33;76.68
75368;DHT22;63954;51.948;5.888;2022-12-11T10:05:14;3.36;76.52
75368;DHT22;63954;51.948;5.888;2022-12-11T10:07:48;3.33;75.91
75368;DHT22;63954;51.948;5.888;2022-12-11T10:10:22;3.32;75.95
75368;DHT22;63954;51.948;5.888;2022-12-11T10:12:59;3.33;75.80
75368;DHT22;63954;51.948;5.888;2022-12-11T10:15:36;3.33;75.57
75368;DHT22;63954;51.948;5.888;2022-12-11T10:18:11;3.36;75.57
75368;DHT22;63954;51.948;5.888;2022-12-11T10:20:40;3.42;75.55
75368;DHT22;63954;51.948;5.888;2022-12-11T10:23:14;3.45;75.60
75368;DHT22;63954;51.948;5.888;2022-12-11T10:25:45;3.49;75.60
75368;DHT22;63954;51.948;5.888;2022-12-11T10:28:18;3.52;75.60
75368;DHT22;63954;51.948;5.888;2022-12-11T10:30:47;3.55;75.43
75368;DHT22;63954;51.948;5.888;2022-12-11T10:33:19;3.55;75.16
75368;DHT22;63954;51.948;5.888;2022-12-11T10:35:52;3.54;75.25
75368;DHT22;63954;51.948;5.888;2022-12-11T10:38:22;3.52;75.04
75368;DHT22;63954;51.948;5.888;2022-12-11T10:40:51;3.50;75.06
75368;DHT22;63954;51.948;5.888;2022-12-11T10:43:31;3.50;74.96
75368;DHT22;63954;51.948;5.888;2022-12-11T10:45:58;3.53;75.24
75368;DHT22;63954;51.948;5.888;2022-12-11T10:48:25;3.54;75.23
75368;DHT22;63954;51.948;5.888;2022-12-11T10:50:59;3.55;75.18
75368;DHT22;63954;51.948;5.888;2022-12-11T10:53:29;3.55;75.03
75368;DHT22;63954;51.948;5.888;2022-12-11T10:55:57;3.54;74.97
75368;DHT22;63954;51.948;5.888;2022-12-11T10:58:29;3.50;74.67
75368;DHT22;63954;51.948;5.888;2022-12-11T11:01:03;3.47;74.89
75368;DHT22;63954;51.948;5.888;2022-12-11T11:03:33;3.49;75.11
75368;DHT22;63954;51.948;5.888;2022-12-11T11:06:03;3.49;74.86
75368;DHT22;63954;51.948;5.888;2022-12-11T11:08:38;3.49;75.02
75368;DHT22;63954;51.948;5.888;2022-12-11T11:11:05;3.50;74.84
75368;DHT22;63954;51.948;5.888;2022-12-11T11:13:35;3.50;74.79
75368;DHT22;63954;51.948;5.888;2022-12-11T11:16:05;3.50;74.86
75368;DHT22;63954;51.948;5.888;2022-12-11T11:18:34;3.50;74.81
75368;DHT22;63954;51.948;5.888;2022-12-11T11:21:02;3.49;74.83
75368;DHT22;63954;51.948;5.888;2022-12-11T11:23:33;3.49;74.83
75368;DHT22;63954;51.948;5.888;2022-12-11T11:26:06;3.48;74.79
75368;DHT22;63954;51.948;5.888;2022-12-11T11:28:36;3.48;74.77
75368;DHT22;63954;51.948;5.888;2022-12-11T11:31:16;3.49;74.86
75368;DHT22;63954;51.948;5.888;2022-12-11T11:33:55;3.48;74.79
75368;DHT22;63954;51.948;5.888;2022-12-11T11:36:25;3.48;74.90
75368;DHT22;63954;51.948;5.888;2022-12-11T11:39:05;3.46;74.80
75368;DHT22;63954;51.948;5.888;2022-12-11T11:41:42;3.46;74.89
75368;DHT22;63954;51.948;5.888;2022-12-11T11:44:15;3.45;74.75
75368;DHT22;63954;51.948;5.888;2022-12-11T11:46:48;3.45;74.97
75368;DHT22;63954;51.948;5.888;2022-12-11T11:49:24;3.48;75.07
75368;DHT22;63954;51.948;5.888;2022-12-11T11:52:00;3.48;74.99
75368;DHT22;63954;51.948;5.888;2022-12-11T11:54:33;3.49;75.07
75368;DHT22;63954;51.948;5.888;2022-12-11T11:57:10;3.49;74.98
75368;DHT22;63954;51.948;5.888;2022-12-11T11:59:42;3.49;74.96
75368;DHT22;63954;51.948;5.888;2022-12-11T12:02:13;3.48;74.95
75368;DHT22;63954;51.948;5.888;2022-12-11T12:04:42;3.48;74.99
75368;DHT22;63954;51.948;5.888;2022-12-11T12:07:23;3.52;75.19
75368;DHT22;63954;51.948;5.888;2022-12-11T12:09:57;3.53;75.21
75368;DHT22;63954;51.948;5.888;2022-12-11T12:12:36;3.56;75.09
75368;DHT22;63954;51.948;5.888;2022-12-11T12:15:26;3.57;74.87
75368;DHT22;63954;51.948;5.888;2022-12-11T12:18:05;3.59;75.14
75368;DHT22;63954;51.948;5.888;2022-12-11T12:20:41;3.60;75.11
75368;DHT22;63954;51.948;5.888;2022-12-11T12:23:22;3.59;75.02
75368;DHT22;63954;51.948;5.888;2022-12-11T12:26:00;3.60;75.05
75368;DHT22;63954;51.948;5.888;2022-12-11T12:28:37;3.58;75.04
75368;DHT22;63954;51.948;5.888;2022-12-11T12:31:23;3.56;75.05
75368;DHT22;63954;51.948;5.888;2022-12-11T12:34:01;3.56;75.03
75368;DHT22;63954;51.948;5.888;2022-12-11T12:36:36;3.56;75.17
75368;DHT22;63954;51.948;5.888;2022-12-11T12:39:10;3.57;75.24
75368;DHT22;63954;51.948;5.888;2022-12-11T12:41:46;3.59;75.22
75368;DHT22;63954;51.948;5.888;2022-12-11T12:44:20;3.60;75.14
75368;DHT22;63954;51.948;5.888;2022-12-11T12:46:54;3.59;74.86
75368;DHT22;63954;51.948;5.888;2022-12-11T12:49:33;3.57;74.97
75368;DHT22;63954;51.948;5.888;2022-12-11T12:52:05;3.56;74.96
75368;DHT22;63954;51.948;5.888;2022-12-11T12:54:37;3.56;74.96
75368;DHT22;63954;51.948;5.888;2022-12-11T12:57:05;3.53;74.83
75368;DHT22;63954;51.948;5.888;2022-12-11T12:59:33;3.50;74.80
75368;DHT22;63954;51.948;5.888;2022-12-11T13:02:03;3.49;74.91
75368;DHT22;63954;51.948;5.888;2022-12-11T13:04:37;3.48;74.91
75368;DHT22;63954;51.948;5.888;2022-12-11T13:07:17;3.48;74.93
75368;DHT22;63954;51.948;5.888;2022-12-11T13:09:55;3.50;74.94
75368;DHT22;63954;51.948;5.888;2022-12-11T13:12:39;3.50;74.89
75368;DHT22;63954;51.948;5.888;2022-12-11T13:15:30;3.50;74.86
75368;DHT22;63954;51.948;5.888;2022-12-11T13:18:01;3.49;74.92
75368;DHT22;63954;51.948;5.888;2022-12-11T13:20:33;3.47;74.80
75368;DHT22;63954;51.948;5.888;2022-12-11T13:23:16;3.45;74.78
75368;DHT22;63954;51.948;5.888;2022-12-11T13:25:51;3.43;74.86
75368;DHT22;63954;51.948;5.888;2022-12-11T13:28:23;3.42;74.90
75368;DHT22;63954;51.948;5.888;2022-12-11T13:31:00;3.40;75.08
75368;DHT22;63954;51.948;5.888;2022-12-11T13:33:31;3.41;74.99
75368;DHT22;63954;51.948;5.888;2022-12-11T13:36:16;3.41;74.96
75368;DHT22;63954;51.948;5.888;2022-12-11T13:38:49;3.40;75.12
75368;DHT22;63954;51.948;5.888;2022-12-11T13:41:18;3.42;75.23
75368;DHT22;63954;51.948;5.888;2022-12-11T13:43:48;3.38;75.06
75368;DHT22;63954;51.948;5.888;2022-12-11T13:46:21;3.38;75.17
75368;DHT22;63954;51.948;5.888;2022-12-11T13:48:54;3.38;75.30
75368;DHT22;63954;51.948;5.888;2022-12-11T13:51:27;3.36;75.28
75368;DHT22;63954;51.948;5.888;2022-12-11T13:54:10;3.35;75.23
75368;DHT22;63954;51.948;5.888;2022-12-11T13:56:39;3.34;75.44
75368;DHT22;63954;51.948;5.888;2022-12-11T13:59:19;3.32;75.27
75368;DHT22;63954;51.948;5.888;2022-12-11T14:01:49;3.29;75.02
75368;DHT22;63954;51.948;5.888;2022-12-11T14:04:19;3.28;75.12
75368;DHT22;63954;51.948;5.888;2022-12-11T14:06:48;3.25;75.28
75368;DHT22;63954;51.948;5.888;2022-12-11T14:09:19;3.23;75.37
75368;DHT22;63954;51.948;5.888;2022-12-11T14:11:48;3.20;75.50
75368;DHT22;63954;51.948;5.888;2022-12-11T14:14:20;3.19;75.64
75368;DHT22;63954;51.948;5.888;2022-12-11T14:16:49;3.21;75.78
75368;DHT22;63954;51.948;5.888;2022-12-11T14:19:20;3.26;75.73
75368;DHT22;63954;51.948;5.888;2022-12-11T14:22:00;3.27;75.54
75368;DHT22;63954;51.948;5.888;2022-12-11T14:24:28;3.27;75.49
75368;DHT22;63954;51.948;5.888;2022-12-11T14:26:57;3.25;75.54
75368;DHT22;63954;51.948;5.888;2022-12-11T14:29:29;3.25;75.46
75368;DHT22;63954;51.948;5.888;2022-12-11T14:32:00;3.23;75.38
75368;DHT22;63954;51.948;5.888;2022-12-11T14:34:35;3.19;75.48
75368;DHT22;63954;51.948;5.888;2022-12-11T14:37:05;3.18;75.49
75368;DHT22;63954;51.948;5.888;2022-12-11T14:39:37;3.15;75.42
75368;DHT22;63954;51.948;5.888;2022-12-11T14:42:11;3.14;75.50
75368;DHT22;63954;51.948;5.888;2022-12-11T14:44:45;3.14;75.54
75368;DHT22;63954;51.948;5.888;2022-12-11T14:47:18;3.15;75.70
75368;DHT22;63954;51.948;5.888;2022-12-11T14:49:51;3.13;75.72
75368;DHT22;63954;51.948;5.888;2022-12-11T14:52:23;3.14;75.72
75368;DHT22;63954;51.948;5.888;2022-12-11T14:54:55;3.11;75.79
75368;DHT22;63954;51.948;5.888;2022-12-11T14:57:28;3.10;75.86
75368;DHT22;63954;51.948;5.888;2022-12-11T14:59:56;3.11;75.97
75368;DHT22;63954;51.948;5.888;2022-12-11T15:02:26;3.10;75.89
75368;DHT22;63954;51.948;5.888;2022-12-11T15:05:04;3.05;75.91
75368;DHT22;63954;51.948;5.888;2022-12-11T15:07:33;3.04;75.95
75368;DHT22;63954;51.948;5.888;2022-12-11T15:10:01;3.01;75.86
75368;DHT22;63954;51.948;5.888;2022-12-11T15:12:29;2.97;75.92
75368;DHT22;63954;51.948;5.888;2022-12-11T15:14:59;2.95;75.91
75368;DHT22;63954;51.948;5.888;2022-12-11T15:17:29;2.93;75.73
75368;DHT22;63954;51.948;5.888;2022-12-11T15:20:04;2.91;75.83
75368;DHT22;63954;51.948;5.888;2022-12-11T15:22:34;2.91;75.74
75368;DHT22;63954;51.948;5.888;2022-12-11T15:25:03;2.90;75.79
75368;DHT22;63954;51.948;5.888;2022-12-11T15:27:33;2.88;75.83
75368;DHT22;63954;51.948;5.888;2022-12-11T15:30:14;2.88;75.80
75368;DHT22;63954;51.948;5.888;2022-12-11T15:36:20;2.85;75.48
75368;DHT22;63954;51.948;5.888;2022-12-11T15:38:48;2.81;75.71
75368;DHT22;63954;51.948;5.888;2022-12-11T15:41:18;2.81;75.85
75368;DHT22;63954;51.948;5.888;2022-12-11T15:43:49;2.82;75.92
75368;DHT22;63954;51.948;5.888;2022-12-11T15:46:18;2.81;75.72
75368;DHT22;63954;51.948;5.888;2022-12-11T15:48:47;2.81;75.97
75368;DHT22;63954;51.948;5.888;2022-12-11T15:51:14;2.83;76.01
75368;DHT22;63954;51.948;5.888;2022-12-11T15:53:44;2.83;76.15
75368;DHT22;63954;51.948;5.888;2022-12-11T15:56:12;2.85;76.22
75368;DHT22;63954;51.948;5.888;2022-12-11T15:58:46;2.87;76.02
75368;DHT22;63954;51.948;5.888;2022-12-11T16:01:13;2.86;76.07
75368;DHT22;63954;51.948;5.888;2022-12-11T16:03:43;2.87;75.93
75368;DHT22;63954;51.948;5.888;2022-12-11T16:06:12;2.83;76.02
75368;DHT22;63954;51.948;5.888;2022-12-11T16:08:39;2.83;76.21
75368;DHT22;63954;51.948;5.888;2022-12-11T16:11:11;2.83;76.05
75368;DHT22;63954;51.948;5.888;2022-12-11T16:13:38;2.82;75.99